DLH899 EYVI-EDDF
Flight info
| Callsign | DLH899 |
|---|---|
| Flight time | 1h 50m |
| Altitude | 36000 |
| Route | UPASI DCT TUNGA DCT SUWGI DCT GOVEN DCT TADUV T178 LASTO/N0428F300 T178 ROBEL/N0387F240 T178 KERAX KERAX5A |
| Aircraft | A320/M-SDE3FGHIRWY/LB1 |
Departure
| Time | 2026-05-05 10:10 |
|---|---|
| Airport | Vilnius International Airport (EYVI) |
Arrival
| Time | 2026-05-05 12:00 |
|---|---|
| Airport | Frankfurt Main Airport (EDDF) |
| Time | Latitude | Longitude | Altitude | Speed | Heading |
|---|---|---|---|---|---|
| 2026-05-05 09:31 | 54.64492 | 25.28184 | 637 ft | 0 kts | 270° |
| 2026-05-05 10:00 | 54.64492 | 25.28205 | 637 ft | 4 kts | 270° |
| 2026-05-05 10:01 | 54.64491 | 25.28243 | 637 ft | 3 kts | 269° |
| 2026-05-05 10:01 | 54.64494 | 25.28275 | 638 ft | 4 kts | 195° |
| 2026-05-05 10:01 | 54.64517 | 25.28278 | 639 ft | 2 kts | 180° |
| 2026-05-05 10:01 | 54.64519 | 25.28278 | 639 ft | 0 kts | 179° |
| 2026-05-05 10:04 | 54.64511 | 25.28278 | 643 ft | 3 kts | 180° |
| 2026-05-05 10:04 | 54.64469 | 25.28278 | 638 ft | 8 kts | 180° |
| 2026-05-05 10:05 | 54.64413 | 25.28330 | 638 ft | 11 kts | 122° |
| 2026-05-05 10:05 | 54.64404 | 25.28449 | 642 ft | 8 kts | 87° |
| 2026-05-05 10:05 | 54.64407 | 25.28539 | 646 ft | 13 kts | 86° |
| 2026-05-05 10:05 | 54.64380 | 25.28651 | 650 ft | 11 kts | 163° |
| 2026-05-05 10:06 | 54.64291 | 25.28669 | 649 ft | 15 kts | 174° |
| 2026-05-05 10:06 | 54.64174 | 25.28688 | 647 ft | 19 kts | 174° |
| 2026-05-05 10:06 | 54.64029 | 25.28694 | 643 ft | 23 kts | 194° |
| 2026-05-05 10:06 | 54.63868 | 25.28586 | 637 ft | 27 kts | 202° |
| 2026-05-05 10:07 | 54.63702 | 25.28470 | 623 ft | 26 kts | 202° |
| 2026-05-05 10:07 | 54.63570 | 25.28378 | 615 ft | 15 kts | 202° |
| 2026-05-05 10:07 | 54.63451 | 25.28296 | 610 ft | 21 kts | 201° |
| 2026-05-05 10:07 | 54.63312 | 25.28200 | 611 ft | 22 kts | 202° |
| 2026-05-05 10:08 | 54.63164 | 25.28099 | 623 ft | 24 kts | 203° |
| 2026-05-05 10:08 | 54.63003 | 25.27984 | 608 ft | 24 kts | 201° |
| 2026-05-05 10:08 | 54.62840 | 25.27874 | 602 ft | 27 kts | 203° |
| 2026-05-05 10:08 | 54.62683 | 25.27762 | 601 ft | 24 kts | 202° |
| 2026-05-05 10:09 | 54.62555 | 25.27672 | 603 ft | 12 kts | 202° |
| 2026-05-05 10:09 | 54.62484 | 25.27704 | 613 ft | 11 kts | 141° |
| 2026-05-05 10:09 | 54.62418 | 25.27812 | 611 ft | 15 kts | 110° |
| 2026-05-05 10:09 | 54.62481 | 25.27932 | 602 ft | 17 kts | 22° |
| 2026-05-05 10:10 | 54.62704 | 25.28085 | 599 ft | 65 kts | 21° |
| 2026-05-05 10:10 | 54.63348 | 25.28530 | 612 ft | 131 kts | 22° |
| 2026-05-05 10:10 | 54.64339 | 25.29206 | 829 ft | 160 kts | 20° |
| 2026-05-05 10:10 | 54.65355 | 25.29892 | 1408 ft | 158 kts | 17° |
| 2026-05-05 10:11 | 54.66374 | 25.30583 | 1982 ft | 158 kts | 17° |
| 2026-05-05 10:11 | 54.67394 | 25.31282 | 2501 ft | 159 kts | 19° |
| 2026-05-05 10:11 | 54.68431 | 25.32009 | 3016 ft | 162 kts | 19° |
| 2026-05-05 10:11 | 54.69472 | 25.32740 | 3571 ft | 161 kts | 19° |
| 2026-05-05 10:12 | 54.70520 | 25.33477 | 3976 ft | 169 kts | 18° |
| 2026-05-05 10:12 | 54.71683 | 25.34284 | 4154 ft | 192 kts | 18° |
| 2026-05-05 10:12 | 54.73031 | 25.35215 | 4298 ft | 222 kts | 18° |
| 2026-05-05 10:12 | 54.74592 | 25.35870 | 4588 ft | 240 kts | 353° |
| 2026-05-05 10:13 | 54.76213 | 25.35037 | 4907 ft | 252 kts | 321° |
| 2026-05-05 10:13 | 54.77319 | 25.32762 | 5516 ft | 254 kts | 290° |
| 2026-05-05 10:13 | 54.77554 | 25.29779 | 6331 ft | 254 kts | 259° |
| 2026-05-05 10:13 | 54.76868 | 25.26934 | 7204 ft | 255 kts | 242° |
| 2026-05-05 10:14 | 54.76055 | 25.24236 | 8118 ft | 255 kts | 244° |
| 2026-05-05 10:14 | 54.75291 | 25.21462 | 9026 ft | 256 kts | 245° |
| 2026-05-05 10:14 | 54.74536 | 25.18651 | 9914 ft | 257 kts | 245° |
| 2026-05-05 10:14 | 54.73765 | 25.15775 | 10401 ft | 273 kts | 245° |
| 2026-05-05 10:15 | 54.72934 | 25.12712 | 10592 ft | 296 kts | 245° |
| 2026-05-05 10:15 | 54.72015 | 25.09362 | 10760 ft | 319 kts | 245° |
| 2026-05-05 10:15 | 54.71023 | 25.05774 | 10904 ft | 341 kts | 245° |
| 2026-05-05 10:15 | 54.69959 | 25.01946 | 11030 ft | 361 kts | 245° |
| 2026-05-05 10:16 | 54.68854 | 24.97981 | 11436 ft | 370 kts | 244° |
| 2026-05-05 10:16 | 54.67741 | 24.93999 | 12009 ft | 375 kts | 244° |
| 2026-05-05 10:16 | 54.66597 | 24.89928 | 12623 ft | 378 kts | 244° |
| 2026-05-05 10:16 | 54.65439 | 24.85822 | 13217 ft | 383 kts | 244° |
| 2026-05-05 10:17 | 54.64265 | 24.81662 | 13792 ft | 387 kts | 244° |
| 2026-05-05 10:17 | 54.63083 | 24.77472 | 14309 ft | 390 kts | 244° |
| 2026-05-05 10:17 | 54.61890 | 24.73244 | 14836 ft | 392 kts | 244° |
| 2026-05-05 10:17 | 54.60689 | 24.68991 | 15376 ft | 394 kts | 244° |
| 2026-05-05 10:18 | 54.59497 | 24.64777 | 15863 ft | 396 kts | 244° |
| 2026-05-05 10:18 | 54.58283 | 24.60498 | 16361 ft | 398 kts | 244° |
| 2026-05-05 10:18 | 54.57060 | 24.56191 | 16820 ft | 401 kts | 244° |
| 2026-05-05 10:18 | 54.55919 | 24.51787 | 17251 ft | 403 kts | 250° |
| 2026-05-05 10:19 | 54.54948 | 24.47217 | 17684 ft | 406 kts | 250° |
| 2026-05-05 10:19 | 54.54010 | 24.42614 | 18120 ft | 408 kts | 251° |
| 2026-05-05 10:19 | 54.53095 | 24.38029 | 18492 ft | 410 kts | 251° |
| 2026-05-05 10:19 | 54.52162 | 24.33351 | 18844 ft | 413 kts | 251° |
| 2026-05-05 10:20 | 54.51219 | 24.28671 | 19207 ft | 414 kts | 251° |
| 2026-05-05 10:20 | 54.50266 | 24.23983 | 19610 ft | 414 kts | 251° |
| 2026-05-05 10:20 | 54.49304 | 24.19288 | 19966 ft | 415 kts | 251° |
| 2026-05-05 10:20 | 54.48347 | 24.14650 | 20270 ft | 417 kts | 251° |
| 2026-05-05 10:21 | 54.47370 | 24.09921 | 20566 ft | 419 kts | 251° |
| 2026-05-05 10:21 | 54.46390 | 24.05176 | 20866 ft | 421 kts | 251° |
| 2026-05-05 10:21 | 54.45406 | 24.00423 | 21142 ft | 423 kts | 250° |
| 2026-05-05 10:21 | 54.44414 | 23.95656 | 21434 ft | 425 kts | 250° |
| 2026-05-05 10:22 | 54.43415 | 23.90871 | 21652 ft | 428 kts | 250° |
| 2026-05-05 10:22 | 54.42405 | 23.86033 | 21862 ft | 431 kts | 250° |
| 2026-05-05 10:22 | 54.41390 | 23.81183 | 22108 ft | 433 kts | 250° |
| 2026-05-05 10:22 | 54.40363 | 23.76300 | 22356 ft | 435 kts | 250° |
| 2026-05-05 10:23 | 54.39332 | 23.71412 | 22595 ft | 436 kts | 250° |
| 2026-05-05 10:23 | 54.38306 | 23.66555 | 22842 ft | 438 kts | 250° |
| 2026-05-05 10:23 | 54.37264 | 23.61623 | 23052 ft | 439 kts | 250° |
| 2026-05-05 10:23 | 54.36224 | 23.56701 | 23298 ft | 441 kts | 250° |
| 2026-05-05 10:24 | 54.35176 | 23.51747 | 23603 ft | 439 kts | 250° |
| 2026-05-05 10:24 | 54.34133 | 23.46842 | 23914 ft | 437 kts | 250° |
| 2026-05-05 10:24 | 54.33100 | 23.42013 | 24199 ft | 435 kts | 250° |
| 2026-05-05 10:24 | 54.32056 | 23.37146 | 24486 ft | 434 kts | 250° |
| 2026-05-05 10:25 | 54.31013 | 23.32289 | 24782 ft | 433 kts | 250° |
| 2026-05-05 10:25 | 54.29971 | 23.27450 | 25060 ft | 432 kts | 250° |
| 2026-05-05 10:25 | 54.28930 | 23.22617 | 25329 ft | 432 kts | 250° |
| 2026-05-05 10:25 | 54.27885 | 23.17784 | 25615 ft | 431 kts | 249° |
| 2026-05-05 10:26 | 54.26844 | 23.12976 | 25929 ft | 430 kts | 250° |
| 2026-05-05 10:26 | 54.25813 | 23.08224 | 26241 ft | 429 kts | 249° |
| 2026-05-05 10:26 | 54.24772 | 23.03433 | 26572 ft | 428 kts | 250° |
| 2026-05-05 10:26 | 54.23733 | 22.98658 | 26899 ft | 427 kts | 250° |
| 2026-05-05 10:27 | 54.22698 | 22.93908 | 27225 ft | 426 kts | 249° |
| 2026-05-05 10:27 | 54.21662 | 22.89173 | 27573 ft | 424 kts | 249° |
| 2026-05-05 10:27 | 54.20642 | 22.84517 | 27935 ft | 423 kts | 249° |
| 2026-05-05 10:27 | 54.19608 | 22.79818 | 28308 ft | 421 kts | 249° |
| 2026-05-05 10:28 | 54.18572 | 22.75138 | 28679 ft | 419 kts | 249° |
| 2026-05-05 10:28 | 54.17887 | 22.72046 | 28912 ft | 419 kts | 249° |
| 2026-05-05 10:28 | 54.16854 | 22.67404 | 29275 ft | 417 kts | 249° |
| 2026-05-05 10:28 | 54.15487 | 22.61261 | 29720 ft | 416 kts | 249° |
| 2026-05-05 10:29 | 54.14804 | 22.58196 | 29919 ft | 416 kts | 249° |
| 2026-05-05 10:29 | 54.13773 | 22.53565 | 30216 ft | 416 kts | 249° |
| 2026-05-05 10:29 | 54.12746 | 22.48966 | 30503 ft | 415 kts | 249° |
| 2026-05-05 10:29 | 54.11717 | 22.44359 | 30794 ft | 414 kts | 249° |
| 2026-05-05 10:30 | 54.10689 | 22.39767 | 31097 ft | 413 kts | 249° |
| 2026-05-05 10:30 | 54.09677 | 22.35251 | 31388 ft | 413 kts | 249° |
| 2026-05-05 10:30 | 54.08649 | 22.30678 | 31685 ft | 412 kts | 249° |
| 2026-05-05 10:30 | 54.07623 | 22.26122 | 31979 ft | 411 kts | 249° |
| 2026-05-05 10:31 | 54.06594 | 22.21569 | 32282 ft | 410 kts | 249° |
| 2026-05-05 10:31 | 54.05562 | 22.17025 | 32578 ft | 410 kts | 249° |
| 2026-05-05 10:31 | 54.04541 | 22.12555 | 32891 ft | 409 kts | 249° |
| 2026-05-05 10:31 | 54.03512 | 22.08046 | 33236 ft | 407 kts | 249° |
| 2026-05-05 10:32 | 54.02488 | 22.03564 | 33568 ft | 405 kts | 249° |
| 2026-05-05 10:32 | 54.01467 | 21.99106 | 33882 ft | 404 kts | 249° |
| 2026-05-05 10:32 | 54.00449 | 21.94664 | 34145 ft | 403 kts | 249° |
| 2026-05-05 10:32 | 53.99429 | 21.90222 | 34389 ft | 402 kts | 249° |
| 2026-05-05 10:33 | 53.98423 | 21.85848 | 34615 ft | 402 kts | 249° |
| 2026-05-05 10:33 | 53.97405 | 21.81421 | 34846 ft | 402 kts | 249° |
| 2026-05-05 10:33 | 53.96386 | 21.77005 | 35068 ft | 402 kts | 249° |
| 2026-05-05 10:33 | 53.95362 | 21.72588 | 35279 ft | 402 kts | 249° |
| 2026-05-05 10:34 | 53.94338 | 21.68178 | 35487 ft | 401 kts | 249° |
| 2026-05-05 10:34 | 53.93310 | 21.63765 | 35687 ft | 401 kts | 249° |
| 2026-05-05 10:34 | 53.92280 | 21.59347 | 35860 ft | 402 kts | 248° |
| 2026-05-05 10:34 | 53.91249 | 21.54925 | 35913 ft | 404 kts | 248° |
| 2026-05-05 10:35 | 53.89166 | 21.46030 | 35912 ft | 411 kts | 248° |
| 2026-05-05 10:35 | 53.87039 | 21.37016 | 35914 ft | 411 kts | 248° |
| 2026-05-05 10:36 | 53.84916 | 21.28075 | 35909 ft | 411 kts | 248° |
| 2026-05-05 10:36 | 53.82777 | 21.19076 | 35910 ft | 411 kts | 248° |
| 2026-05-05 10:37 | 53.80637 | 21.10091 | 35910 ft | 411 kts | 248° |
| 2026-05-05 10:37 | 53.78505 | 21.01173 | 35913 ft | 411 kts | 248° |
| 2026-05-05 10:38 | 53.76351 | 20.92204 | 35912 ft | 411 kts | 248° |
| 2026-05-05 10:38 | 53.74186 | 20.83232 | 35912 ft | 411 kts | 248° |
| 2026-05-05 10:39 | 53.72034 | 20.74338 | 35911 ft | 411 kts | 248° |
| 2026-05-05 10:39 | 53.69857 | 20.65386 | 35889 ft | 412 kts | 248° |
| 2026-05-05 10:40 | 53.67686 | 20.56475 | 35889 ft | 412 kts | 248° |
| 2026-05-05 10:40 | 53.65497 | 20.47520 | 35892 ft | 413 kts | 247° |
| 2026-05-05 10:41 | 53.63303 | 20.38618 | 35895 ft | 413 kts | 247° |
| 2026-05-05 10:41 | 53.61084 | 20.29667 | 35897 ft | 413 kts | 247° |
| 2026-05-05 10:42 | 53.57770 | 20.16316 | 35900 ft | 413 kts | 247° |
| 2026-05-05 10:43 | 53.55538 | 20.07384 | 35885 ft | 413 kts | 247° |
| 2026-05-05 10:43 | 53.53311 | 19.98512 | 35910 ft | 413 kts | 247° |
| 2026-05-05 10:44 | 53.51062 | 19.89594 | 35910 ft | 413 kts | 247° |
| 2026-05-05 10:44 | 53.48824 | 19.80736 | 35910 ft | 413 kts | 247° |
| 2026-05-05 10:45 | 53.46567 | 19.71824 | 35902 ft | 413 kts | 246° |
| 2026-05-05 10:45 | 53.44324 | 19.62989 | 35902 ft | 413 kts | 246° |
| 2026-05-05 10:46 | 53.42057 | 19.54104 | 35901 ft | 413 kts | 246° |
| 2026-05-05 10:46 | 53.39779 | 19.45235 | 35876 ft | 414 kts | 246° |
| 2026-05-05 10:47 | 53.37486 | 19.36372 | 35902 ft | 414 kts | 246° |
| 2026-05-05 10:47 | 53.35210 | 19.27575 | 35902 ft | 414 kts | 246° |
| 2026-05-05 10:48 | 53.32913 | 19.18721 | 35897 ft | 414 kts | 246° |
| 2026-05-05 10:48 | 53.30606 | 19.09880 | 35897 ft | 414 kts | 246° |
| 2026-05-05 10:49 | 53.28308 | 19.01091 | 35897 ft | 414 kts | 246° |
| 2026-05-05 10:49 | 53.25988 | 18.92255 | 35896 ft | 415 kts | 246° |
| 2026-05-05 10:50 | 53.23657 | 18.83440 | 35870 ft | 415 kts | 246° |
| 2026-05-05 10:50 | 53.21337 | 18.74674 | 35872 ft | 415 kts | 246° |
| 2026-05-05 10:51 | 53.18991 | 18.65856 | 35894 ft | 416 kts | 246° |
| 2026-05-05 10:51 | 53.16634 | 18.57033 | 35891 ft | 415 kts | 246° |
| 2026-05-05 10:52 | 53.14274 | 18.48229 | 35891 ft | 415 kts | 245° |
| 2026-05-05 10:52 | 53.11922 | 18.39483 | 35890 ft | 415 kts | 245° |
| 2026-05-05 10:53 | 53.09563 | 18.30744 | 35887 ft | 415 kts | 245° |
| 2026-05-05 10:53 | 53.07184 | 18.21973 | 35881 ft | 416 kts | 245° |
| 2026-05-05 10:54 | 53.04792 | 18.13196 | 35883 ft | 416 kts | 245° |
| 2026-05-05 10:54 | 53.02414 | 18.04488 | 35898 ft | 416 kts | 245° |
| 2026-05-05 10:55 | 53.00021 | 17.95732 | 35895 ft | 416 kts | 245° |
| 2026-05-05 10:55 | 52.97629 | 17.87028 | 35895 ft | 416 kts | 245° |
| 2026-05-05 10:56 | 52.95208 | 17.78289 | 35886 ft | 416 kts | 245° |
| 2026-05-05 10:56 | 52.92786 | 17.69552 | 35888 ft | 416 kts | 245° |
| 2026-05-05 10:57 | 52.90360 | 17.60843 | 35871 ft | 416 kts | 245° |
| 2026-05-05 10:57 | 52.87944 | 17.52202 | 35873 ft | 416 kts | 245° |
| 2026-05-05 10:58 | 52.85505 | 17.43483 | 35876 ft | 417 kts | 245° |
| 2026-05-05 10:58 | 52.83052 | 17.34760 | 35898 ft | 417 kts | 245° |
| 2026-05-05 10:59 | 52.80594 | 17.26085 | 35895 ft | 417 kts | 245° |
| 2026-05-05 10:59 | 52.78148 | 17.17452 | 35888 ft | 416 kts | 245° |
| 2026-05-05 11:00 | 52.75686 | 17.08776 | 35885 ft | 417 kts | 245° |
| 2026-05-05 11:00 | 52.73209 | 17.00115 | 35881 ft | 417 kts | 244° |
| 2026-05-05 11:01 | 52.70735 | 16.91508 | 35882 ft | 417 kts | 244° |
| 2026-05-05 11:01 | 52.68251 | 16.82873 | 35884 ft | 416 kts | 244° |
| 2026-05-05 11:02 | 52.65777 | 16.74304 | 35901 ft | 416 kts | 244° |
| 2026-05-05 11:02 | 52.63272 | 16.65665 | 35893 ft | 417 kts | 244° |
| 2026-05-05 11:03 | 52.60763 | 16.57038 | 35891 ft | 417 kts | 244° |
| 2026-05-05 11:03 | 52.58274 | 16.48501 | 35884 ft | 417 kts | 245° |
| 2026-05-05 11:04 | 52.55748 | 16.39872 | 35876 ft | 418 kts | 244° |
| 2026-05-05 11:04 | 52.53233 | 16.31319 | 35876 ft | 418 kts | 244° |
| 2026-05-05 11:05 | 52.50688 | 16.22690 | 35876 ft | 419 kts | 244° |
| 2026-05-05 11:05 | 52.48158 | 16.14127 | 35876 ft | 418 kts | 244° |
| 2026-05-05 11:06 | 52.45604 | 16.05526 | 35888 ft | 419 kts | 244° |
| 2026-05-05 11:06 | 52.43036 | 15.96947 | 35889 ft | 419 kts | 244° |
| 2026-05-05 11:07 | 52.40468 | 15.88409 | 35885 ft | 419 kts | 244° |
| 2026-05-05 11:07 | 52.37890 | 15.79850 | 35883 ft | 419 kts | 244° |
| 2026-05-05 11:08 | 52.35315 | 15.71299 | 35875 ft | 418 kts | 244° |
| 2026-05-05 11:08 | 52.32737 | 15.62756 | 35875 ft | 418 kts | 244° |
| 2026-05-05 11:09 | 52.30167 | 15.54284 | 35876 ft | 418 kts | 244° |
| 2026-05-05 11:09 | 52.27568 | 15.45766 | 35899 ft | 418 kts | 244° |
| 2026-05-05 11:10 | 52.24962 | 15.37269 | 35899 ft | 417 kts | 244° |
| 2026-05-05 11:10 | 52.22367 | 15.28821 | 35878 ft | 416 kts | 244° |
| 2026-05-05 11:11 | 52.19772 | 15.20370 | 35880 ft | 416 kts | 244° |
| 2026-05-05 11:11 | 52.17187 | 15.11981 | 35883 ft | 416 kts | 244° |
| 2026-05-05 11:12 | 52.14573 | 15.03552 | 35887 ft | 416 kts | 244° |
| 2026-05-05 11:12 | 52.11949 | 14.95145 | 35888 ft | 416 kts | 244° |
| 2026-05-05 11:13 | 52.09336 | 14.86793 | 35910 ft | 416 kts | 244° |
| 2026-05-05 11:13 | 52.06705 | 14.78395 | 35881 ft | 415 kts | 244° |
| 2026-05-05 11:14 | 52.04163 | 14.69960 | 35883 ft | 415 kts | 246° |
| 2026-05-05 11:14 | 52.01875 | 14.61409 | 35884 ft | 415 kts | 248° |
| 2026-05-05 11:15 | 51.99605 | 14.52784 | 35884 ft | 415 kts | 247° |
| 2026-05-05 11:15 | 51.97271 | 14.44219 | 35882 ft | 415 kts | 246° |
| 2026-05-05 11:16 | 51.94921 | 14.35727 | 35883 ft | 415 kts | 246° |
| 2026-05-05 11:16 | 51.92550 | 14.27180 | 35882 ft | 415 kts | 246° |
| 2026-05-05 11:17 | 51.90181 | 14.18646 | 35859 ft | 415 kts | 246° |
| 2026-05-05 11:17 | 51.87812 | 14.10158 | 35861 ft | 415 kts | 246° |
| 2026-05-05 11:18 | 51.85427 | 14.01620 | 35866 ft | 415 kts | 246° |
| 2026-05-05 11:18 | 51.83045 | 13.93141 | 35869 ft | 415 kts | 246° |
| 2026-05-05 11:19 | 51.81053 | 13.86069 | 35869 ft | 416 kts | 246° |
| 2026-05-05 11:19 | 51.78648 | 13.77567 | 35873 ft | 416 kts | 246° |
| 2026-05-05 11:20 | 51.76235 | 13.69056 | 35892 ft | 415 kts | 246° |
| 2026-05-05 11:20 | 51.73837 | 13.60618 | 35894 ft | 415 kts | 246° |
| 2026-05-05 11:21 | 51.71416 | 13.52140 | 35875 ft | 415 kts | 245° |
| 2026-05-05 11:21 | 51.69002 | 13.43729 | 35879 ft | 415 kts | 245° |
| 2026-05-05 11:22 | 51.66572 | 13.35270 | 35882 ft | 415 kts | 245° |
| 2026-05-05 11:22 | 51.64153 | 13.26870 | 35884 ft | 415 kts | 245° |
| 2026-05-05 11:23 | 51.61704 | 13.18430 | 35884 ft | 415 kts | 245° |
| 2026-05-05 11:23 | 51.59255 | 13.10011 | 35889 ft | 415 kts | 245° |
| 2026-05-05 11:24 | 51.56800 | 13.01601 | 35888 ft | 415 kts | 245° |
| 2026-05-05 11:24 | 51.54352 | 12.93265 | 35876 ft | 414 kts | 245° |
| 2026-05-05 11:25 | 51.51894 | 12.84888 | 35879 ft | 414 kts | 245° |
| 2026-05-05 11:25 | 51.49428 | 12.76516 | 35884 ft | 414 kts | 244° |
| 2026-05-05 11:26 | 51.46970 | 12.68212 | 35888 ft | 414 kts | 244° |
| 2026-05-05 11:26 | 51.44485 | 12.59870 | 35889 ft | 413 kts | 245° |
| 2026-05-05 11:27 | 51.42935 | 12.51073 | 35908 ft | 415 kts | 262° |
| 2026-05-05 11:27 | 51.42676 | 12.41799 | 35904 ft | 416 kts | 265° |
| 2026-05-05 11:28 | 51.42435 | 12.32536 | 35900 ft | 416 kts | 265° |
| 2026-05-05 11:28 | 51.42180 | 12.23319 | 35896 ft | 416 kts | 265° |
| 2026-05-05 11:29 | 51.41912 | 12.14049 | 35889 ft | 415 kts | 265° |
| 2026-05-05 11:29 | 51.41642 | 12.04794 | 35891 ft | 416 kts | 265° |
| 2026-05-05 11:30 | 51.40777 | 11.95749 | 35888 ft | 412 kts | 250° |
| 2026-05-05 11:30 | 51.38353 | 11.87470 | 35884 ft | 411 kts | 242° |
| 2026-05-05 11:31 | 51.35675 | 11.79374 | 35883 ft | 409 kts | 242° |
| 2026-05-05 11:31 | 51.33090 | 11.71528 | 35886 ft | 396 kts | 242° |
| 2026-05-05 11:32 | 51.30520 | 11.63751 | 35888 ft | 395 kts | 242° |
| 2026-05-05 11:32 | 51.27936 | 11.55983 | 35890 ft | 394 kts | 242° |
| 2026-05-05 11:33 | 51.25359 | 11.48206 | 35090 ft | 400 kts | 242° |
| 2026-05-05 11:33 | 51.24070 | 11.44325 | 34330 ft | 401 kts | 241° |
| 2026-05-05 11:33 | 51.22759 | 11.40396 | 33704 ft | 398 kts | 241° |
| 2026-05-05 11:33 | 51.21462 | 11.36514 | 33215 ft | 391 kts | 241° |
| 2026-05-05 11:34 | 51.20189 | 11.32709 | 32714 ft | 386 kts | 241° |
| 2026-05-05 11:34 | 51.18932 | 11.28962 | 32221 ft | 381 kts | 241° |
| 2026-05-05 11:34 | 51.17702 | 11.25303 | 31733 ft | 376 kts | 241° |
| 2026-05-05 11:34 | 51.16469 | 11.21646 | 31259 ft | 372 kts | 241° |
| 2026-05-05 11:35 | 51.15247 | 11.18024 | 30787 ft | 368 kts | 240° |
| 2026-05-05 11:35 | 51.14039 | 11.14441 | 30323 ft | 365 kts | 240° |
| 2026-05-05 11:35 | 51.12842 | 11.10894 | 29847 ft | 362 kts | 240° |
| 2026-05-05 11:35 | 51.11649 | 11.07368 | 29532 ft | 366 kts | 240° |
| 2026-05-05 11:36 | 51.10430 | 11.03776 | 29218 ft | 370 kts | 240° |
| 2026-05-05 11:36 | 51.09219 | 11.00213 | 28904 ft | 370 kts | 240° |
| 2026-05-05 11:36 | 51.07993 | 10.96604 | 28587 ft | 370 kts | 240° |
| 2026-05-05 11:36 | 51.06767 | 10.93004 | 28285 ft | 369 kts | 240° |
| 2026-05-05 11:37 | 51.05540 | 10.89406 | 27947 ft | 368 kts | 240° |
| 2026-05-05 11:37 | 51.04331 | 10.85870 | 27647 ft | 368 kts | 240° |
| 2026-05-05 11:37 | 51.03105 | 10.82296 | 27331 ft | 367 kts | 240° |
| 2026-05-05 11:37 | 51.01882 | 10.78727 | 27014 ft | 366 kts | 240° |
| 2026-05-05 11:38 | 51.00667 | 10.75176 | 26697 ft | 365 kts | 240° |
| 2026-05-05 11:38 | 50.99452 | 10.71627 | 26379 ft | 364 kts | 240° |
| 2026-05-05 11:38 | 50.98241 | 10.68096 | 26065 ft | 364 kts | 240° |
| 2026-05-05 11:38 | 50.97029 | 10.64572 | 25744 ft | 363 kts | 240° |
| 2026-05-05 11:39 | 50.95814 | 10.61051 | 25431 ft | 362 kts | 240° |
| 2026-05-05 11:39 | 50.94619 | 10.57591 | 25121 ft | 361 kts | 240° |
| 2026-05-05 11:39 | 50.93412 | 10.54100 | 24808 ft | 360 kts | 240° |
| 2026-05-05 11:39 | 50.92210 | 10.50620 | 24497 ft | 359 kts | 240° |
| 2026-05-05 11:40 | 50.90927 | 10.47223 | 24182 ft | 358 kts | 232° |
| 2026-05-05 11:40 | 50.89262 | 10.44320 | 23875 ft | 356 kts | 221° |
| 2026-05-05 11:40 | 50.87243 | 10.42058 | 23645 ft | 356 kts | 209° |
| 2026-05-05 11:40 | 50.84979 | 10.40456 | 23407 ft | 356 kts | 202° |
| 2026-05-05 11:41 | 50.82673 | 10.39001 | 23097 ft | 356 kts | 202° |
| 2026-05-05 11:41 | 50.80351 | 10.37533 | 22396 ft | 360 kts | 202° |
| 2026-05-05 11:41 | 50.78078 | 10.36095 | 22059 ft | 353 kts | 202° |
| 2026-05-05 11:41 | 50.75815 | 10.34664 | 21708 ft | 348 kts | 202° |
| 2026-05-05 11:42 | 50.73572 | 10.33246 | 21370 ft | 345 kts | 202° |
| 2026-05-05 11:42 | 50.71351 | 10.31842 | 21021 ft | 342 kts | 202° |
| 2026-05-05 11:42 | 50.69148 | 10.30442 | 20673 ft | 340 kts | 202° |
| 2026-05-05 11:42 | 50.67043 | 10.28770 | 20342 ft | 338 kts | 213° |
| 2026-05-05 11:43 | 50.65240 | 10.26417 | 20008 ft | 336 kts | 226° |
| 2026-05-05 11:43 | 50.63824 | 10.23488 | 19674 ft | 336 kts | 238° |
| 2026-05-05 11:43 | 50.62707 | 10.20255 | 19344 ft | 335 kts | 240° |
| 2026-05-05 11:43 | 50.61610 | 10.17069 | 19012 ft | 334 kts | 239° |
| 2026-05-05 11:44 | 50.60497 | 10.13868 | 18681 ft | 332 kts | 239° |
| 2026-05-05 11:44 | 50.59383 | 10.10683 | 18352 ft | 330 kts | 239° |
| 2026-05-05 11:44 | 50.58278 | 10.07517 | 18012 ft | 329 kts | 239° |
| 2026-05-05 11:44 | 50.57190 | 10.04398 | 17671 ft | 327 kts | 239° |
| 2026-05-05 11:45 | 50.56093 | 10.01259 | 17342 ft | 326 kts | 239° |
| 2026-05-05 11:45 | 50.54998 | 9.98126 | 16962 ft | 325 kts | 239° |
| 2026-05-05 11:45 | 50.54021 | 9.94925 | 16569 ft | 325 kts | 248° |
| 2026-05-05 11:45 | 50.53373 | 9.91496 | 16185 ft | 325 kts | 252° |
| 2026-05-05 11:46 | 50.52764 | 9.88082 | 15806 ft | 324 kts | 252° |
| 2026-05-05 11:46 | 50.52156 | 9.84679 | 15429 ft | 323 kts | 252° |
| 2026-05-05 11:46 | 50.51551 | 9.81329 | 15066 ft | 322 kts | 252° |
| 2026-05-05 11:46 | 50.50937 | 9.77955 | 14706 ft | 320 kts | 252° |
| 2026-05-05 11:47 | 50.50326 | 9.74595 | 14353 ft | 319 kts | 252° |
| 2026-05-05 11:47 | 50.49726 | 9.71242 | 13986 ft | 318 kts | 253° |
| 2026-05-05 11:47 | 50.49146 | 9.67886 | 13630 ft | 317 kts | 253° |
| 2026-05-05 11:47 | 50.48575 | 9.64540 | 13226 ft | 316 kts | 253° |
| 2026-05-05 11:48 | 50.47446 | 9.57885 | 12429 ft | 313 kts | 254° |
| 2026-05-05 11:48 | 50.46908 | 9.54621 | 12053 ft | 311 kts | 251° |
| 2026-05-05 11:48 | 50.45946 | 9.51616 | 11601 ft | 308 kts | 231° |
| 2026-05-05 11:49 | 50.44524 | 9.49060 | 11096 ft | 309 kts | 227° |
| 2026-05-05 11:49 | 50.43096 | 9.46576 | 10604 ft | 310 kts | 226° |
| 2026-05-05 11:49 | 50.41638 | 9.44061 | 10123 ft | 311 kts | 226° |
| 2026-05-05 11:49 | 50.40183 | 9.41546 | 9634 ft | 311 kts | 226° |
| 2026-05-05 11:50 | 50.38735 | 9.39046 | 9187 ft | 302 kts | 226° |
| 2026-05-05 11:50 | 50.37357 | 9.36664 | 8794 ft | 287 kts | 227° |
| 2026-05-05 11:50 | 50.36036 | 9.34381 | 8406 ft | 279 kts | 227° |
| 2026-05-05 11:50 | 50.34751 | 9.32173 | 8028 ft | 276 kts | 226° |
| 2026-05-05 11:51 | 50.33453 | 9.29945 | 7659 ft | 276 kts | 227° |
| 2026-05-05 11:51 | 50.32165 | 9.27727 | 7274 ft | 274 kts | 227° |
| 2026-05-05 11:51 | 50.30889 | 9.25531 | 6908 ft | 272 kts | 227° |
| 2026-05-05 11:51 | 50.29619 | 9.23342 | 6546 ft | 270 kts | 227° |
| 2026-05-05 11:52 | 50.28354 | 9.21167 | 6180 ft | 269 kts | 227° |
| 2026-05-05 11:52 | 50.27094 | 9.19005 | 5797 ft | 268 kts | 227° |
| 2026-05-05 11:52 | 50.25841 | 9.16857 | 5413 ft | 267 kts | 227° |
| 2026-05-05 11:52 | 50.24608 | 9.14744 | 5040 ft | 265 kts | 227° |
| 2026-05-05 11:53 | 50.23365 | 9.12619 | 4755 ft | 263 kts | 227° |
| 2026-05-05 11:53 | 50.22124 | 9.10497 | 4500 ft | 263 kts | 227° |
| 2026-05-05 11:53 | 50.20887 | 9.08384 | 4241 ft | 263 kts | 227° |
| 2026-05-05 11:53 | 50.19649 | 9.06270 | 4057 ft | 263 kts | 227° |
| 2026-05-05 11:54 | 50.18434 | 9.04195 | 4010 ft | 259 kts | 227° |
| 2026-05-05 11:54 | 50.17255 | 9.02179 | 4013 ft | 242 kts | 227° |
| 2026-05-05 11:54 | 50.16145 | 9.00287 | 4011 ft | 232 kts | 227° |
| 2026-05-05 11:54 | 50.15052 | 8.98430 | 4017 ft | 232 kts | 227° |
| 2026-05-05 11:55 | 50.13974 | 8.96600 | 4012 ft | 231 kts | 227° |
| 2026-05-05 11:55 | 50.12879 | 8.94741 | 4015 ft | 232 kts | 228° |
| 2026-05-05 11:55 | 50.12023 | 8.92614 | 4013 ft | 233 kts | 246° |
| 2026-05-05 11:55 | 50.11453 | 8.90252 | 4007 ft | 233 kts | 250° |
| 2026-05-05 11:56 | 50.10919 | 8.87908 | 4002 ft | 222 kts | 249° |
| 2026-05-05 11:56 | 50.10415 | 8.85743 | 3915 ft | 211 kts | 249° |
| 2026-05-05 11:56 | 50.09913 | 8.83611 | 3680 ft | 208 kts | 249° |
| 2026-05-05 11:56 | 50.09416 | 8.81500 | 3417 ft | 207 kts | 249° |
| 2026-05-05 11:57 | 50.08925 | 8.79420 | 3171 ft | 202 kts | 249° |
| 2026-05-05 11:57 | 50.08446 | 8.77388 | 2881 ft | 198 kts | 249° |
| 2026-05-05 11:57 | 50.07976 | 8.75400 | 2616 ft | 193 kts | 249° |
| 2026-05-05 11:57 | 50.07517 | 8.73459 | 2363 ft | 189 kts | 249° |
| 2026-05-05 11:58 | 50.07065 | 8.71549 | 2113 ft | 187 kts | 249° |
| 2026-05-05 11:58 | 50.06631 | 8.69716 | 1867 ft | 177 kts | 249° |
| 2026-05-05 11:58 | 50.06214 | 8.67958 | 1629 ft | 165 kts | 249° |
| 2026-05-05 11:58 | 50.05842 | 8.66387 | 1440 ft | 150 kts | 249° |
| 2026-05-05 11:59 | 50.05489 | 8.64900 | 1240 ft | 144 kts | 249° |
| 2026-05-05 11:59 | 50.05146 | 8.63458 | 1049 ft | 140 kts | 249° |
| 2026-05-05 11:59 | 50.04812 | 8.62053 | 867 ft | 137 kts | 249° |
| 2026-05-05 11:59 | 50.04484 | 8.60673 | 675 ft | 135 kts | 249° |
| 2026-05-05 12:00 | 50.04156 | 8.59305 | 482 ft | 134 kts | 249° |
| 2026-05-05 12:00 | 50.03842 | 8.57978 | 372 ft | 124 kts | 248° |
| 2026-05-05 12:00 | 50.03586 | 8.56893 | 356 ft | 84 kts | 248° |
| 2026-05-05 12:00 | 50.03444 | 8.56282 | 356 ft | 46 kts | 253° |
| 2026-05-05 12:01 | 50.03456 | 8.55900 | 345 ft | 32 kts | 278° |
| 2026-05-05 12:01 | 50.03476 | 8.55709 | 345 ft | 18 kts | 279° |
| 2026-05-05 12:01 | 50.03495 | 8.55515 | 350 ft | 19 kts | 271° |
| 2026-05-05 12:01 | 50.03453 | 8.55308 | 344 ft | 21 kts | 249° |
| 2026-05-05 12:02 | 50.03400 | 8.55085 | 348 ft | 23 kts | 250° |
| 2026-05-05 12:02 | 50.03340 | 8.54837 | 337 ft | 26 kts | 249° |
| 2026-05-05 12:02 | 50.03294 | 8.54642 | 338 ft | 17 kts | 249° |
| 2026-05-05 12:02 | 50.03295 | 8.54493 | 338 ft | 13 kts | 325° |
| 2026-05-05 12:03 | 50.03372 | 8.54448 | 339 ft | 10 kts | 339° |
| 2026-05-05 12:03 | 50.03431 | 8.54413 | 352 ft | 9 kts | 339° |
| 2026-05-05 12:03 | 50.03516 | 8.54364 | 345 ft | 15 kts | 340° |
| 2026-05-05 12:03 | 50.03615 | 8.54310 | 347 ft | 14 kts | 348° |
| 2026-05-05 12:04 | 50.03676 | 8.54393 | 345 ft | 12 kts | 70° |
| 2026-05-05 12:04 | 50.03711 | 8.54540 | 349 ft | 20 kts | 70° |
| 2026-05-05 12:04 | 50.03761 | 8.54748 | 349 ft | 20 kts | 69° |
| 2026-05-05 12:04 | 50.03808 | 8.54950 | 350 ft | 19 kts | 69° |
| 2026-05-05 12:05 | 50.03854 | 8.55137 | 358 ft | 16 kts | 70° |
| 2026-05-05 12:05 | 50.03890 | 8.55287 | 354 ft | 14 kts | 69° |
| 2026-05-05 12:05 | 50.03911 | 8.55377 | 353 ft | 13 kts | 70° |
| 2026-05-05 12:05 | 50.03941 | 8.55500 | 356 ft | 11 kts | 69° |
| 2026-05-05 12:06 | 50.03968 | 8.55614 | 356 ft | 11 kts | 70° |
| 2026-05-05 12:06 | 50.04005 | 8.55772 | 352 ft | 20 kts | 70° |
| 2026-05-05 12:06 | 50.04044 | 8.55927 | 353 ft | 22 kts | 59° |
| 2026-05-05 12:06 | 50.04171 | 8.55926 | 356 ft | 18 kts | 342° |
| 2026-05-05 12:07 | 50.04278 | 8.55960 | 354 ft | 15 kts | 1° |
| 2026-05-05 12:07 | 50.04366 | 8.55917 | 360 ft | 12 kts | 340° |
| 2026-05-05 12:07 | 50.04439 | 8.55915 | 357 ft | 10 kts | 14° |
| 2026-05-05 12:07 | 50.04507 | 8.55948 | 364 ft | 11 kts | 18° |
| 2026-05-05 12:08 | 50.04564 | 8.56007 | 356 ft | 10 kts | 64° |
| 2026-05-05 12:08 | 50.04587 | 8.56102 | 360 ft | 10 kts | 70° |
| 2026-05-05 12:08 | 50.04616 | 8.56223 | 359 ft | 13 kts | 70° |
| 2026-05-05 12:08 | 50.04647 | 8.56351 | 362 ft | 12 kts | 69° |
| 2026-05-05 12:09 | 50.04675 | 8.56468 | 359 ft | 11 kts | 69° |
| 2026-05-05 12:09 | 50.04719 | 8.56531 | 362 ft | 9 kts | 350° |
| 2026-05-05 12:09 | 50.04764 | 8.56503 | 356 ft | 3 kts | 339° |
| 2026-05-05 12:09 | 50.04780 | 8.56494 | 361 ft | 0 kts | 339° |